sensor_id;sensor_type;location;lat;lon;timestamp;P1;durP1;ratioP1;P2;durP2;ratioP2
7160;SDS011;3622;53.576;9.978;2023-04-05T00:00:11;6.57;;;3.40;;
7160;SDS011;3622;53.576;9.978;2023-04-05T00:02:37;6.67;;;3.60;;
7160;SDS011;3622;53.576;9.978;2023-04-05T00:05:05;3.50;;;3.20;;
7160;SDS011;3622;53.576;9.978;2023-04-05T00:07:31;4.90;;;2.90;;
7160;SDS011;3622;53.576;9.978;2023-04-05T00:10:00;4.70;;;3.80;;
7160;SDS011;3622;53.576;9.978;2023-04-05T00:12:26;8.03;;;3.60;;
7160;SDS011;3622;53.576;9.978;2023-04-05T00:14:52;9.13;;;3.10;;
7160;SDS011;3622;53.576;9.978;2023-04-05T00:17:17;3.67;;;3.40;;
7160;SDS011;3622;53.576;9.978;2023-04-05T00:19:43;4.50;;;3.30;;
7160;SDS011;3622;53.576;9.978;2023-04-05T00:22:09;3.93;;;3.30;;
7160;SDS011;3622;53.576;9.978;2023-04-05T00:24:36;4.47;;;3.13;;
7160;SDS011;3622;53.576;9.978;2023-04-05T00:27:07;5.50;;;3.60;;
7160;SDS011;3622;53.576;9.978;2023-04-05T00:29:33;6.93;;;2.97;;
7160;SDS011;3622;53.576;9.978;2023-04-05T00:31:59;4.43;;;3.73;;
7160;SDS011;3622;53.576;9.978;2023-04-05T00:34:25;6.87;;;3.80;;
7160;SDS011;3622;53.576;9.978;2023-04-05T00:36:51;4.70;;;3.10;;
7160;SDS011;3622;53.576;9.978;2023-04-05T00:39:17;5.40;;;3.80;;
7160;SDS011;3622;53.576;9.978;2023-04-05T00:41:43;3.37;;;3.07;;
7160;SDS011;3622;53.576;9.978;2023-04-05T00:44:09;4.60;;;3.10;;
7160;SDS011;3622;53.576;9.978;2023-04-05T00:46:36;5.63;;;3.70;;
7160;SDS011;3622;53.576;9.978;2023-04-05T00:49:03;5.47;;;3.70;;
7160;SDS011;3622;53.576;9.978;2023-04-05T00:51:30;6.63;;;3.63;;
7160;SDS011;3622;53.576;9.978;2023-04-05T00:53:58;8.63;;;3.80;;
7160;SDS011;3622;53.576;9.978;2023-04-05T00:56:24;5.93;;;3.73;;
7160;SDS011;3622;53.576;9.978;2023-04-05T00:58:50;5.33;;;4.30;;
7160;SDS011;3622;53.576;9.978;2023-04-05T01:01:17;4.47;;;3.97;;
7160;SDS011;3622;53.576;9.978;2023-04-05T01:03:45;8.17;;;3.90;;
7160;SDS011;3622;53.576;9.978;2023-04-05T01:08:54;5.50;;;3.90;;
7160;SDS011;3622;53.576;9.978;2023-04-05T01:11:25;5.53;;;4.20;;
7160;SDS011;3622;53.576;9.978;2023-04-05T01:14:00;4.10;;;3.70;;
7160;SDS011;3622;53.576;9.978;2023-04-05T01:16:27;4.27;;;3.80;;
7160;SDS011;3622;53.576;9.978;2023-04-05T01:18:53;5.07;;;4.40;;
7160;SDS011;3622;53.576;9.978;2023-04-05T01:24:12;4.53;;;3.73;;
7160;SDS011;3622;53.576;9.978;2023-04-05T01:31:59;12.07;;;4.33;;
7160;SDS011;3622;53.576;9.978;2023-04-05T01:34:45;4.70;;;4.03;;
7160;SDS011;3622;53.576;9.978;2023-04-05T01:37:13;5.37;;;4.50;;
7160;SDS011;3622;53.576;9.978;2023-04-05T01:39:40;7.07;;;3.90;;
7160;SDS011;3622;53.576;9.978;2023-04-05T01:42:06;6.30;;;4.17;;
7160;SDS011;3622;53.576;9.978;2023-04-05T01:44:32;7.23;;;4.40;;
7160;SDS011;3622;53.576;9.978;2023-04-05T01:46:58;5.80;;;4.30;;
7160;SDS011;3622;53.576;9.978;2023-04-05T01:49:24;10.70;;;4.50;;
7160;SDS011;3622;53.576;9.978;2023-04-05T01:51:50;5.30;;;4.50;;
7160;SDS011;3622;53.576;9.978;2023-04-05T01:54:16;5.80;;;4.60;;
7160;SDS011;3622;53.576;9.978;2023-04-05T01:56:42;7.70;;;4.70;;
7160;SDS011;3622;53.576;9.978;2023-04-05T01:59:08;5.70;;;4.50;;
7160;SDS011;3622;53.576;9.978;2023-04-05T02:01:34;7.63;;;4.40;;
7160;SDS011;3622;53.576;9.978;2023-04-05T02:04:00;7.33;;;5.00;;
7160;SDS011;3622;53.576;9.978;2023-04-05T02:06:27;7.20;;;4.53;;
7160;SDS011;3622;53.576;9.978;2023-04-05T02:08:53;8.60;;;4.87;;
7160;SDS011;3622;53.576;9.978;2023-04-05T02:11:19;7.50;;;4.97;;
7160;SDS011;3622;53.576;9.978;2023-04-05T02:13:45;7.77;;;4.90;;
7160;SDS011;3622;53.576;9.978;2023-04-05T02:16:11;7.77;;;4.60;;
7160;SDS011;3622;53.576;9.978;2023-04-05T02:18:37;7.37;;;5.10;;
7160;SDS011;3622;53.576;9.978;2023-04-05T02:21:03;6.43;;;5.00;;
7160;SDS011;3622;53.576;9.978;2023-04-05T02:23:29;7.00;;;5.13;;
7160;SDS011;3622;53.576;9.978;2023-04-05T02:25:56;6.10;;;5.00;;
7160;SDS011;3622;53.576;9.978;2023-04-05T02:28:22;7.33;;;5.53;;
7160;SDS011;3622;53.576;9.978;2023-04-05T02:30:48;6.87;;;5.10;;
7160;SDS011;3622;53.576;9.978;2023-04-05T02:33:14;6.63;;;5.30;;
7160;SDS011;3622;53.576;9.978;2023-04-05T02:35:40;7.23;;;5.00;;
7160;SDS011;3622;53.576;9.978;2023-04-05T02:38:06;7.87;;;5.13;;
7160;SDS011;3622;53.576;9.978;2023-04-05T02:40:33;7.40;;;5.07;;
7160;SDS011;3622;53.576;9.978;2023-04-05T02:42:59;7.73;;;4.80;;
7160;SDS011;3622;53.576;9.978;2023-04-05T02:45:25;8.70;;;4.70;;
7160;SDS011;3622;53.576;9.978;2023-04-05T02:47:52;9.20;;;5.87;;
7160;SDS011;3622;53.576;9.978;2023-04-05T02:50:18;9.00;;;5.80;;
7160;SDS011;3622;53.576;9.978;2023-04-05T02:52:45;7.30;;;5.13;;
7160;SDS011;3622;53.576;9.978;2023-04-05T02:55:14;6.20;;;5.30;;
7160;SDS011;3622;53.576;9.978;2023-04-05T02:57:42;7.80;;;4.90;;
7160;SDS011;3622;53.576;9.978;2023-04-05T03:00:08;10.47;;;5.13;;
7160;SDS011;3622;53.576;9.978;2023-04-05T03:02:35;9.60;;;6.37;;
7160;SDS011;3622;53.576;9.978;2023-04-05T03:05:02;9.97;;;6.07;;
7160;SDS011;3622;53.576;9.978;2023-04-05T03:07:28;12.47;;;7.10;;
7160;SDS011;3622;53.576;9.978;2023-04-05T03:09:56;11.87;;;6.93;;
7160;SDS011;3622;53.576;9.978;2023-04-05T03:12:23;11.93;;;6.80;;
7160;SDS011;3622;53.576;9.978;2023-04-05T03:14:49;10.13;;;6.43;;
7160;SDS011;3622;53.576;9.978;2023-04-05T03:17:16;16.30;;;9.40;;
7160;SDS011;3622;53.576;9.978;2023-04-05T03:19:42;13.90;;;7.70;;
7160;SDS011;3622;53.576;9.978;2023-04-05T03:22:09;11.00;;;7.17;;
7160;SDS011;3622;53.576;9.978;2023-04-05T03:24:35;11.90;;;7.33;;
7160;SDS011;3622;53.576;9.978;2023-04-05T03:27:01;14.20;;;8.23;;
7160;SDS011;3622;53.576;9.978;2023-04-05T03:29:29;14.50;;;8.03;;
7160;SDS011;3622;53.576;9.978;2023-04-05T03:31:56;17.23;;;8.27;;
7160;SDS011;3622;53.576;9.978;2023-04-05T03:34:25;17.67;;;8.47;;
7160;SDS011;3622;53.576;9.978;2023-04-05T03:36:53;9.40;;;7.00;;
7160;SDS011;3622;53.576;9.978;2023-04-05T03:39:19;11.40;;;7.33;;
7160;SDS011;3622;53.576;9.978;2023-04-05T03:41:45;15.70;;;7.50;;
7160;SDS011;3622;53.576;9.978;2023-04-05T03:44:11;16.57;;;7.57;;
7160;SDS011;3622;53.576;9.978;2023-04-05T03:46:37;12.10;;;7.50;;
7160;SDS011;3622;53.576;9.978;2023-04-05T03:49:03;18.13;;;8.60;;
7160;SDS011;3622;53.576;9.978;2023-04-05T03:51:30;15.60;;;7.90;;
7160;SDS011;3622;53.576;9.978;2023-04-05T03:53:56;12.00;;;7.43;;
7160;SDS011;3622;53.576;9.978;2023-04-05T03:56:22;11.03;;;7.60;;
7160;SDS011;3622;53.576;9.978;2023-04-05T03:58:49;12.30;;;7.67;;
7160;SDS011;3622;53.576;9.978;2023-04-05T04:01:16;13.20;;;7.40;;
7160;SDS011;3622;53.576;9.978;2023-04-05T04:03:42;11.70;;;6.63;;
7160;SDS011;3622;53.576;9.978;2023-04-05T04:06:08;13.50;;;7.03;;
7160;SDS011;3622;53.576;9.978;2023-04-05T04:08:35;12.70;;;6.80;;
7160;SDS011;3622;53.576;9.978;2023-04-05T04:11:01;12.40;;;7.67;;
7160;SDS011;3622;53.576;9.978;2023-04-05T04:13:27;14.03;;;7.57;;
7160;SDS011;3622;53.576;9.978;2023-04-05T04:15:53;11.27;;;7.50;;
7160;SDS011;3622;53.576;9.978;2023-04-05T04:18:19;15.00;;;7.93;;
7160;SDS011;3622;53.576;9.978;2023-04-05T04:20:45;12.43;;;7.63;;
7160;SDS011;3622;53.576;9.978;2023-04-05T04:23:12;11.40;;;6.97;;
7160;SDS011;3622;53.576;9.978;2023-04-05T04:25:38;11.60;;;6.63;;
7160;SDS011;3622;53.576;9.978;2023-04-05T04:28:06;12.00;;;6.63;;
7160;SDS011;3622;53.576;9.978;2023-04-05T04:30:33;11.97;;;7.20;;
7160;SDS011;3622;53.576;9.978;2023-04-05T04:33:02;10.93;;;7.40;;
7160;SDS011;3622;53.576;9.978;2023-04-05T04:35:31;11.43;;;6.97;;
7160;SDS011;3622;53.576;9.978;2023-04-05T04:38:06;12.37;;;7.23;;
7160;SDS011;3622;53.576;9.978;2023-04-05T04:40:33;11.93;;;6.60;;
7160;SDS011;3622;53.576;9.978;2023-04-05T04:43:13;12.07;;;7.00;;
7160;SDS011;3622;53.576;9.978;2023-04-05T04:45:45;12.60;;;6.97;;
7160;SDS011;3622;53.576;9.978;2023-04-05T04:48:12;9.37;;;6.10;;
7160;SDS011;3622;53.576;9.978;2023-04-05T04:50:40;15.00;;;8.07;;
7160;SDS011;3622;53.576;9.978;2023-04-05T04:53:07;15.60;;;8.73;;
7160;SDS011;3622;53.576;9.978;2023-04-05T04:55:33;16.93;;;8.93;;
7160;SDS011;3622;53.576;9.978;2023-04-05T04:58:00;19.47;;;8.97;;
7160;SDS011;3622;53.576;9.978;2023-04-05T05:00:33;18.70;;;9.57;;
7160;SDS011;3622;53.576;9.978;2023-04-05T05:02:59;14.30;;;8.30;;
7160;SDS011;3622;53.576;9.978;2023-04-05T05:05:25;18.73;;;9.63;;
7160;SDS011;3622;53.576;9.978;2023-04-05T05:07:51;18.23;;;9.00;;
7160;SDS011;3622;53.576;9.978;2023-04-05T05:10:17;18.77;;;8.87;;
7160;SDS011;3622;53.576;9.978;2023-04-05T05:12:43;17.90;;;8.90;;
7160;SDS011;3622;53.576;9.978;2023-04-05T05:15:10;16.70;;;7.90;;
7160;SDS011;3622;53.576;9.978;2023-04-05T05:17:36;12.53;;;7.60;;
7160;SDS011;3622;53.576;9.978;2023-04-05T05:20:03;12.77;;;7.00;;
7160;SDS011;3622;53.576;9.978;2023-04-05T05:22:31;15.50;;;8.90;;
7160;SDS011;3622;53.576;9.978;2023-04-05T05:24:57;10.80;;;6.77;;
7160;SDS011;3622;53.576;9.978;2023-04-05T05:27:23;12.40;;;6.20;;
7160;SDS011;3622;53.576;9.978;2023-04-05T05:29:49;14.47;;;6.77;;
7160;SDS011;3622;53.576;9.978;2023-04-05T05:32:15;9.20;;;5.90;;
7160;SDS011;3622;53.576;9.978;2023-04-05T05:34:41;11.57;;;6.60;;
7160;SDS011;3622;53.576;9.978;2023-04-05T05:37:09;13.03;;;7.80;;
7160;SDS011;3622;53.576;9.978;2023-04-05T05:39:35;22.53;;;8.63;;
7160;SDS011;3622;53.576;9.978;2023-04-05T05:42:01;16.53;;;7.53;;
7160;SDS011;3622;53.576;9.978;2023-04-05T05:44:28;10.33;;;6.73;;
7160;SDS011;3622;53.576;9.978;2023-04-05T05:46:54;9.90;;;6.20;;
7160;SDS011;3622;53.576;9.978;2023-04-05T05:49:20;9.20;;;5.67;;
7160;SDS011;3622;53.576;9.978;2023-04-05T05:51:47;12.80;;;5.97;;
7160;SDS011;3622;53.576;9.978;2023-04-05T05:54:13;11.50;;;6.77;;
7160;SDS011;3622;53.576;9.978;2023-04-05T05:56:39;15.13;;;6.77;;
7160;SDS011;3622;53.576;9.978;2023-04-05T05:59:05;14.53;;;6.47;;
7160;SDS011;3622;53.576;9.978;2023-04-05T06:01:31;11.07;;;7.10;;
7160;SDS011;3622;53.576;9.978;2023-04-05T06:03:58;9.77;;;6.13;;
7160;SDS011;3622;53.576;9.978;2023-04-05T06:06:24;8.67;;;5.50;;
7160;SDS011;3622;53.576;9.978;2023-04-05T06:08:51;12.83;;;6.97;;
7160;SDS011;3622;53.576;9.978;2023-04-05T06:11:17;16.60;;;6.80;;
7160;SDS011;3622;53.576;9.978;2023-04-05T06:13:44;12.57;;;8.70;;
7160;SDS011;3622;53.576;9.978;2023-04-05T06:16:10;10.00;;;5.63;;
7160;SDS011;3622;53.576;9.978;2023-04-05T06:18:36;8.73;;;5.67;;
7160;SDS011;3622;53.576;9.978;2023-04-05T06:21:02;13.83;;;5.70;;
7160;SDS011;3622;53.576;9.978;2023-04-05T06:23:28;9.40;;;5.10;;
7160;SDS011;3622;53.576;9.978;2023-04-05T06:25:54;9.60;;;6.17;;
7160;SDS011;3622;53.576;9.978;2023-04-05T06:28:21;6.23;;;5.37;;
7160;SDS011;3622;53.576;9.978;2023-04-05T06:30:47;10.27;;;5.30;;
7160;SDS011;3622;53.576;9.978;2023-04-05T06:33:13;6.80;;;4.80;;
7160;SDS011;3622;53.576;9.978;2023-04-05T06:35:39;11.27;;;5.50;;
7160;SDS011;3622;53.576;9.978;2023-04-05T06:38:05;8.17;;;4.90;;
7160;SDS011;3622;53.576;9.978;2023-04-05T06:40:30;9.73;;;4.40;;
7160;SDS011;3622;53.576;9.978;2023-04-05T06:42:56;6.80;;;4.80;;
7160;SDS011;3622;53.576;9.978;2023-04-05T06:45:22;10.00;;;4.77;;
7160;SDS011;3622;53.576;9.978;2023-04-05T06:47:48;9.97;;;4.67;;
7160;SDS011;3622;53.576;9.978;2023-04-05T06:50:15;10.60;;;5.37;;
7160;SDS011;3622;53.576;9.978;2023-04-05T06:52:40;9.50;;;5.50;;
7160;SDS011;3622;53.576;9.978;2023-04-05T06:55:06;9.13;;;5.50;;
7160;SDS011;3622;53.576;9.978;2023-04-05T06:57:33;10.60;;;4.27;;
7160;SDS011;3622;53.576;9.978;2023-04-05T06:59:59;12.10;;;4.70;;
7160;SDS011;3622;53.576;9.978;2023-04-05T07:02:25;4.57;;;4.03;;
7160;SDS011;3622;53.576;9.978;2023-04-05T07:04:51;6.30;;;4.00;;
7160;SDS011;3622;53.576;9.978;2023-04-05T07:07:17;6.67;;;4.07;;
7160;SDS011;3622;53.576;9.978;2023-04-05T07:09:43;10.90;;;5.00;;
7160;SDS011;3622;53.576;9.978;2023-04-05T07:12:09;5.70;;;4.07;;
7160;SDS011;3622;53.576;9.978;2023-04-05T07:14:36;6.97;;;5.13;;
7160;SDS011;3622;53.576;9.978;2023-04-05T07:17:05;6.43;;;3.93;;
7160;SDS011;3622;53.576;9.978;2023-04-05T07:19:31;4.53;;;4.13;;
7160;SDS011;3622;53.576;9.978;2023-04-05T07:21:57;11.20;;;4.60;;
7160;SDS011;3622;53.576;9.978;2023-04-05T07:24:24;13.20;;;4.80;;
7160;SDS011;3622;53.576;9.978;2023-04-05T07:26:50;13.90;;;5.03;;
7160;SDS011;3622;53.576;9.978;2023-04-05T07:29:16;25.17;;;12.17;;
7160;SDS011;3622;53.576;9.978;2023-04-05T07:31:42;30.80;;;11.00;;
7160;SDS011;3622;53.576;9.978;2023-04-05T07:34:08;27.67;;;10.60;;
7160;SDS011;3622;53.576;9.978;2023-04-05T07:36:34;19.50;;;9.67;;
7160;SDS011;3622;53.576;9.978;2023-04-05T07:39:00;19.17;;;10.90;;
7160;SDS011;3622;53.576;9.978;2023-04-05T07:41:27;21.60;;;9.93;;
7160;SDS011;3622;53.576;9.978;2023-04-05T07:43:59;19.30;;;10.57;;
7160;SDS011;3622;53.576;9.978;2023-04-05T07:46:25;26.13;;;10.27;;
7160;SDS011;3622;53.576;9.978;2023-04-05T07:48:51;24.53;;;9.80;;
7160;SDS011;3622;53.576;9.978;2023-04-05T07:51:17;22.57;;;10.80;;
7160;SDS011;3622;53.576;9.978;2023-04-05T07:53:43;22.80;;;9.47;;
7160;SDS011;3622;53.576;9.978;2023-04-05T07:56:09;25.17;;;10.07;;
7160;SDS011;3622;53.576;9.978;2023-04-05T07:58:36;21.80;;;10.30;;
7160;SDS011;3622;53.576;9.978;2023-04-05T08:01:06;20.80;;;9.03;;
7160;SDS011;3622;53.576;9.978;2023-04-05T08:03:32;16.33;;;9.23;;
7160;SDS011;3622;53.576;9.978;2023-04-05T08:06:12;13.63;;;8.50;;
7160;SDS011;3622;53.576;9.978;2023-04-05T08:08:39;17.00;;;8.30;;
7160;SDS011;3622;53.576;9.978;2023-04-05T08:11:05;24.93;;;8.70;;
7160;SDS011;3622;53.576;9.978;2023-04-05T08:13:31;17.53;;;7.73;;
7160;SDS011;3622;53.576;9.978;2023-04-05T08:15:58;17.33;;;8.30;;
7160;SDS011;3622;53.576;9.978;2023-04-05T08:18:25;18.23;;;9.80;;
7160;SDS011;3622;53.576;9.978;2023-04-05T08:20:52;14.03;;;8.80;;
7160;SDS011;3622;53.576;9.978;2023-04-05T08:23:18;15.90;;;7.87;;
7160;SDS011;3622;53.576;9.978;2023-04-05T08:25:44;14.17;;;7.57;;
7160;SDS011;3622;53.576;9.978;2023-04-05T08:28:11;14.63;;;8.67;;
7160;SDS011;3622;53.576;9.978;2023-04-05T08:30:37;22.23;;;8.90;;
7160;SDS011;3622;53.576;9.978;2023-04-05T08:33:03;16.57;;;9.70;;
7160;SDS011;3622;53.576;9.978;2023-04-05T08:35:29;15.30;;;9.00;;
7160;SDS011;3622;53.576;9.978;2023-04-05T08:37:56;16.20;;;8.20;;
7160;SDS011;3622;53.576;9.978;2023-04-05T08:40:23;7.20;;;4.20;;
7160;SDS011;3622;53.576;9.978;2023-04-05T08:43:01;9.60;;;5.47;;
7160;SDS011;3622;53.576;9.978;2023-04-05T08:45:28;6.20;;;4.60;;
7160;SDS011;3622;53.576;9.978;2023-04-05T08:47:55;11.10;;;4.47;;
7160;SDS011;3622;53.576;9.978;2023-04-05T08:50:21;7.97;;;4.40;;
7160;SDS011;3622;53.576;9.978;2023-04-05T08:52:48;12.83;;;4.47;;
7160;SDS011;3622;53.576;9.978;2023-04-05T08:55:15;4.77;;;3.50;;
7160;SDS011;3622;53.576;9.978;2023-04-05T08:57:46;9.30;;;4.00;;
7160;SDS011;3622;53.576;9.978;2023-04-05T09:00:13;4.60;;;3.67;;
7160;SDS011;3622;53.576;9.978;2023-04-05T09:02:40;5.43;;;4.33;;
7160;SDS011;3622;53.576;9.978;2023-04-05T09:05:08;5.53;;;3.67;;
7160;SDS011;3622;53.576;9.978;2023-04-05T09:07:35;5.83;;;3.70;;
7160;SDS011;3622;53.576;9.978;2023-04-05T09:10:02;5.43;;;4.10;;
7160;SDS011;3622;53.576;9.978;2023-04-05T09:12:30;4.67;;;3.50;;
7160;SDS011;3622;53.576;9.978;2023-04-05T09:14:57;8.03;;;4.10;;
7160;SDS011;3622;53.576;9.978;2023-04-05T09:17:25;3.93;;;3.60;;
7160;SDS011;3622;53.576;9.978;2023-04-05T09:19:52;4.87;;;4.10;;
7160;SDS011;3622;53.576;9.978;2023-04-05T09:22:18;5.77;;;4.17;;
7160;SDS011;3622;53.576;9.978;2023-04-05T09:24:45;4.43;;;3.10;;
7160;SDS011;3622;53.576;9.978;2023-04-05T09:27:11;4.40;;;3.53;;
7160;SDS011;3622;53.576;9.978;2023-04-05T09:29:38;3.93;;;3.17;;
7160;SDS011;3622;53.576;9.978;2023-04-05T09:32:05;8.40;;;4.43;;
7160;SDS011;3622;53.576;9.978;2023-04-05T09:34:32;5.60;;;4.30;;
7160;SDS011;3622;53.576;9.978;2023-04-05T09:37:00;4.60;;;3.43;;
7160;SDS011;3622;53.576;9.978;2023-04-05T09:39:27;8.40;;;4.17;;
7160;SDS011;3622;53.576;9.978;2023-04-05T09:42:08;5.70;;;4.37;;
7160;SDS011;3622;53.576;9.978;2023-04-05T09:44:54;3.93;;;3.60;;
7160;SDS011;3622;53.576;9.978;2023-04-05T09:47:24;6.17;;;4.27;;
7160;SDS011;3622;53.576;9.978;2023-04-05T09:49:54;5.93;;;3.87;;
7160;SDS011;3622;53.576;9.978;2023-04-05T09:54:46;4.33;;;3.57;;
7160;SDS011;3622;53.576;9.978;2023-04-05T09:57:14;3.87;;;3.50;;
7160;SDS011;3622;53.576;9.978;2023-04-05T09:59:41;6.57;;;5.10;;
7160;SDS011;3622;53.576;9.978;2023-04-05T10:02:09;4.30;;;3.87;;
7160;SDS011;3622;53.576;9.978;2023-04-05T10:04:39;4.37;;;3.97;;
7160;SDS011;3622;53.576;9.978;2023-04-05T10:07:06;7.87;;;5.00;;
7160;SDS011;3622;53.576;9.978;2023-04-05T10:09:32;9.67;;;5.20;;
7160;SDS011;3622;53.576;9.978;2023-04-05T10:11:58;6.40;;;3.87;;
7160;SDS011;3622;53.576;9.978;2023-04-05T10:14:24;5.27;;;4.23;;
7160;SDS011;3622;53.576;9.978;2023-04-05T10:19:23;4.43;;;4.13;;
7160;SDS011;3622;53.576;9.978;2023-04-05T10:21:52;4.70;;;3.80;;
7160;SDS011;3622;53.576;9.978;2023-04-05T10:26:58;4.40;;;4.00;;
7160;SDS011;3622;53.576;9.978;2023-04-05T10:29:29;5.20;;;4.70;;
7160;SDS011;3622;53.576;9.978;2023-04-05T10:31:58;4.67;;;4.27;;
7160;SDS011;3622;53.576;9.978;2023-04-05T10:34:30;5.07;;;4.57;;
7160;SDS011;3622;53.576;9.978;2023-04-05T10:36:57;5.10;;;4.10;;
7160;SDS011;3622;53.576;9.978;2023-04-05T10:39:26;4.83;;;4.33;;
7160;SDS011;3622;53.576;9.978;2023-04-05T10:41:53;4.90;;;3.93;;
7160;SDS011;3622;53.576;9.978;2023-04-05T10:44:21;4.40;;;4.00;;
7160;SDS011;3622;53.576;9.978;2023-04-05T10:46:47;5.87;;;4.40;;
7160;SDS011;3622;53.576;9.978;2023-04-05T10:49:21;4.83;;;4.43;;
7160;SDS011;3622;53.576;9.978;2023-04-05T10:51:49;6.50;;;4.70;;
7160;SDS011;3622;53.576;9.978;2023-04-05T10:54:16;4.60;;;4.20;;
7160;SDS011;3622;53.576;9.978;2023-04-05T10:56:44;8.10;;;4.40;;
7160;SDS011;3622;53.576;9.978;2023-04-05T10:59:11;4.10;;;3.80;;
7160;SDS011;3622;53.576;9.978;2023-04-05T11:01:37;7.00;;;4.83;;
7160;SDS011;3622;53.576;9.978;2023-04-05T11:04:11;10.70;;;5.90;;
7160;SDS011;3622;53.576;9.978;2023-04-05T11:06:37;4.67;;;4.20;;
7160;SDS011;3622;53.576;9.978;2023-04-05T11:09:13;4.63;;;4.23;;
7160;SDS011;3622;53.576;9.978;2023-04-05T11:11:41;4.80;;;3.90;;
7160;SDS011;3622;53.576;9.978;2023-04-05T11:14:16;8.60;;;5.30;;
7160;SDS011;3622;53.576;9.978;2023-04-05T11:16:44;5.67;;;3.83;;
7160;SDS011;3622;53.576;9.978;2023-04-05T11:19:10;4.50;;;4.20;;
7160;SDS011;3622;53.576;9.978;2023-04-05T11:21:36;5.03;;;4.63;;
7160;SDS011;3622;53.576;9.978;2023-04-05T11:24:09;4.30;;;3.90;;
7160;SDS011;3622;53.576;9.978;2023-04-05T11:29:07;7.23;;;5.10;;
7160;SDS011;3622;53.576;9.978;2023-04-05T11:31:34;8.00;;;4.60;;
7160;SDS011;3622;53.576;9.978;2023-04-05T11:34:03;3.90;;;3.70;;
7160;SDS011;3622;53.576;9.978;2023-04-05T11:42:03;9.00;;;3.40;;
7160;SDS011;3622;53.576;9.978;2023-04-05T11:44:38;5.00;;;4.33;;
7160;SDS011;3622;53.576;9.978;2023-04-05T11:47:05;4.43;;;4.13;;
7160;SDS011;3622;53.576;9.978;2023-04-05T11:49:32;5.87;;;3.90;;
7160;SDS011;3622;53.576;9.978;2023-04-05T11:52:03;4.73;;;4.23;;
7160;SDS011;3622;53.576;9.978;2023-04-05T11:54:34;5.10;;;4.40;;
7160;SDS011;3622;53.576;9.978;2023-04-05T11:57:00;4.57;;;3.60;;
7160;SDS011;3622;53.576;9.978;2023-04-05T11:59:36;6.60;;;3.87;;
7160;SDS011;3622;53.576;9.978;2023-04-05T12:02:03;4.27;;;3.97;;
7160;SDS011;3622;53.576;9.978;2023-04-05T12:04:36;4.90;;;4.40;;
7160;SDS011;3622;53.576;9.978;2023-04-05T12:09:34;7.70;;;4.00;;
7160;SDS011;3622;53.576;9.978;2023-04-05T12:12:00;6.30;;;5.17;;
7160;SDS011;3622;53.576;9.978;2023-04-05T12:14:26;4.97;;;4.30;;
7160;SDS011;3622;53.576;9.978;2023-04-05T12:16:52;4.17;;;3.87;;
7160;SDS011;3622;53.576;9.978;2023-04-05T12:19:20;7.20;;;4.40;;
7160;SDS011;3622;53.576;9.978;2023-04-05T12:21:46;5.80;;;3.73;;
7160;SDS011;3622;53.576;9.978;2023-04-05T12:24:12;8.03;;;3.90;;
7160;SDS011;3622;53.576;9.978;2023-04-05T12:26:38;5.20;;;3.73;;
7160;SDS011;3622;53.576;9.978;2023-04-05T12:29:04;6.53;;;4.00;;
7160;SDS011;3622;53.576;9.978;2023-04-05T12:31:41;4.13;;;3.40;;
7160;SDS011;3622;53.576;9.978;2023-04-05T12:34:07;3.50;;;3.30;;
7160;SDS011;3622;53.576;9.978;2023-04-05T12:36:34;5.30;;;3.20;;
7160;SDS011;3622;53.576;9.978;2023-04-05T12:39:00;3.40;;;3.20;;
7160;SDS011;3622;53.576;9.978;2023-04-05T12:41:31;3.97;;;3.47;;
7160;SDS011;3622;53.576;9.978;2023-04-05T12:43:58;3.97;;;3.67;;
7160;SDS011;3622;53.576;9.978;2023-04-05T12:46:38;4.40;;;3.60;;
7160;SDS011;3622;53.576;9.978;2023-04-05T12:49:25;4.50;;;4.10;;
7160;SDS011;3622;53.576;9.978;2023-04-05T12:51:52;7.50;;;5.97;;
7160;SDS011;3622;53.576;9.978;2023-04-05T12:54:21;6.13;;;4.73;;
7160;SDS011;3622;53.576;9.978;2023-04-05T12:56:53;6.53;;;5.40;;
7160;SDS011;3622;53.576;9.978;2023-04-05T12:59:20;6.50;;;4.20;;
7160;SDS011;3622;53.576;9.978;2023-04-05T13:01:46;8.43;;;5.13;;
7160;SDS011;3622;53.576;9.978;2023-04-05T13:04:12;6.27;;;4.70;;
7160;SDS011;3622;53.576;9.978;2023-04-05T13:09:08;5.50;;;4.70;;
7160;SDS011;3622;53.576;9.978;2023-04-05T13:11:34;10.90;;;5.57;;
7160;SDS011;3622;53.576;9.978;2023-04-05T13:14:00;4.77;;;4.43;;
7160;SDS011;3622;53.576;9.978;2023-04-05T13:16:26;6.00;;;5.50;;
7160;SDS011;3622;53.576;9.978;2023-04-05T13:18:52;6.80;;;5.03;;
7160;SDS011;3622;53.576;9.978;2023-04-05T13:21:18;6.30;;;5.10;;
7160;SDS011;3622;53.576;9.978;2023-04-05T13:23:44;5.83;;;4.60;;
7160;SDS011;3622;53.576;9.978;2023-04-05T13:26:10;9.07;;;5.33;;
7160;SDS011;3622;53.576;9.978;2023-04-05T13:28:36;13.73;;;9.50;;
7160;SDS011;3622;53.576;9.978;2023-04-05T13:31:02;5.70;;;5.20;;
7160;SDS011;3622;53.576;9.978;2023-04-05T13:33:30;7.77;;;6.30;;
7160;SDS011;3622;53.576;9.978;2023-04-05T13:35:56;9.37;;;5.77;;
7160;SDS011;3622;53.576;9.978;2023-04-05T13:38:22;7.17;;;6.47;;
7160;SDS011;3622;53.576;9.978;2023-04-05T13:40:48;20.03;;;11.03;;
7160;SDS011;3622;53.576;9.978;2023-04-05T13:43:14;11.57;;;9.10;;
7160;SDS011;3622;53.576;9.978;2023-04-05T13:45:40;7.40;;;5.90;;
7160;SDS011;3622;53.576;9.978;2023-04-05T13:48:05;7.30;;;5.80;;
7160;SDS011;3622;53.576;9.978;2023-04-05T13:50:31;6.07;;;5.47;;
7160;SDS011;3622;53.576;9.978;2023-04-05T13:52:57;7.60;;;6.30;;
7160;SDS011;3622;53.576;9.978;2023-04-05T13:55:23;6.33;;;5.73;;
7160;SDS011;3622;53.576;9.978;2023-04-05T13:57:49;7.93;;;6.30;;
7160;SDS011;3622;53.576;9.978;2023-04-05T14:00:15;5.73;;;5.20;;
7160;SDS011;3622;53.576;9.978;2023-04-05T14:02:41;6.40;;;5.80;;
7160;SDS011;3622;53.576;9.978;2023-04-05T14:05:07;6.73;;;6.03;;
7160;SDS011;3622;53.576;9.978;2023-04-05T14:07:34;9.00;;;6.30;;
7160;SDS011;3622;53.576;9.978;2023-04-05T14:10:00;33.67;;;18.63;;
7160;SDS011;3622;53.576;9.978;2023-04-05T14:12:26;25.50;;;16.10;;
7160;SDS011;3622;53.576;9.978;2023-04-05T14:14:52;7.53;;;6.00;;
7160;SDS011;3622;53.576;9.978;2023-04-05T14:17:18;7.27;;;5.83;;
7160;SDS011;3622;53.576;9.978;2023-04-05T14:19:44;9.30;;;6.60;;
7160;SDS011;3622;53.576;9.978;2023-04-05T14:22:10;6.73;;;6.03;;
7160;SDS011;3622;53.576;9.978;2023-04-05T14:24:36;7.10;;;6.40;;
7160;SDS011;3622;53.576;9.978;2023-04-05T14:27:02;6.70;;;6.10;;
7160;SDS011;3622;53.576;9.978;2023-04-05T14:29:28;10.20;;;5.90;;
7160;SDS011;3622;53.576;9.978;2023-04-05T14:31:54;8.23;;;6.10;;
7160;SDS011;3622;53.576;9.978;2023-04-05T14:34:20;7.00;;;6.10;;
7160;SDS011;3622;53.576;9.978;2023-04-05T14:36:46;9.03;;;7.50;;
7160;SDS011;3622;53.576;9.978;2023-04-05T14:39:12;7.87;;;6.70;;
7160;SDS011;3622;53.576;9.978;2023-04-05T14:41:38;7.87;;;6.80;;
7160;SDS011;3622;53.576;9.978;2023-04-05T14:44:05;12.63;;;6.33;;
7160;SDS011;3622;53.576;9.978;2023-04-05T14:46:31;10.10;;;5.97;;
7160;SDS011;3622;53.576;9.978;2023-04-05T14:48:57;6.40;;;5.90;;
7160;SDS011;3622;53.576;9.978;2023-04-05T14:51:23;5.83;;;5.30;;
7160;SDS011;3622;53.576;9.978;2023-04-05T14:53:50;8.17;;;5.83;;
7160;SDS011;3622;53.576;9.978;2023-04-05T14:56:16;8.60;;;5.23;;
7160;SDS011;3622;53.576;9.978;2023-04-05T14:58:42;5.40;;;5.00;;
7160;SDS011;3622;53.576;9.978;2023-04-05T15:01:08;5.30;;;4.90;;
7160;SDS011;3622;53.576;9.978;2023-04-05T15:03:34;5.70;;;4.90;;
7160;SDS011;3622;53.576;9.978;2023-04-05T15:06:00;5.30;;;4.80;;
7160;SDS011;3622;53.576;9.978;2023-04-05T15:08:27;5.23;;;4.70;;
7160;SDS011;3622;53.576;9.978;2023-04-05T15:10:53;5.40;;;4.40;;
7160;SDS011;3622;53.576;9.978;2023-04-05T15:13:20;4.50;;;4.10;;
7160;SDS011;3622;53.576;9.978;2023-04-05T15:15:48;4.43;;;4.03;;
7160;SDS011;3622;53.576;9.978;2023-04-05T15:18:14;4.33;;;3.97;;
7160;SDS011;3622;53.576;9.978;2023-04-05T15:20:40;3.90;;;3.70;;
7160;SDS011;3622;53.576;9.978;2023-04-05T15:23:06;3.80;;;3.57;;
7160;SDS011;3622;53.576;9.978;2023-04-05T15:25:32;5.73;;;3.70;;
7160;SDS011;3622;53.576;9.978;2023-04-05T15:27:58;6.17;;;4.23;;
7160;SDS011;3622;53.576;9.978;2023-04-05T15:30:28;4.30;;;4.00;;
7160;SDS011;3622;53.576;9.978;2023-04-05T15:32:56;4.33;;;3.93;;
7160;SDS011;3622;53.576;9.978;2023-04-05T15:35:22;4.83;;;4.43;;
7160;SDS011;3622;53.576;9.978;2023-04-05T15:37:48;4.13;;;3.73;;
7160;SDS011;3622;53.576;9.978;2023-04-05T15:40:14;3.70;;;3.40;;